Reklama

Seznam meteostanic a jejich METAR

Vyhledat místa podle abecedy:
A B C D E F G H I J K L M N O P Q R S T U V W X Y Z

Filtrovat:

ID stanice:
a/nebo
Název místa (fulltext):
 
Místo (ID)Naposledy načteno 
Antwerp (EBAW) 08.04.2020 18:50 UTC Zobrazit METAR
EBAW 081850Z AUTO 01003KT CAVOK 20/01 Q1022
Apia (NSFA) 08.04.2020 17:00 UTC Zobrazit METAR
NSFA 081700Z 36006KT 9999 FEW020 SCT082 BKN120 28/26 Q1010 RMK
Aruba I (TNCA) 08.04.2020 19:00 UTC Zobrazit METAR
TNCA 081900Z 08020KT 9999 SCT024 31/24 Q1010 NOSIG
Ascension I. (FHAW) 02.04.2020 19:50 UTC Zobrazit METAR
FHAW 021950Z 14009KT 9999 FEW024 27/22 Q1013 NOSIG RMK BLU BLU
Ashgabat (UTAA) 08.04.2020 19:00 UTC Zobrazit METAR
UTAA 081900Z 27006KT 9999 BKN049 BKN099 06/M03 Q1033 R88/CLRD70 NOSIG
Asmara (HHAS) 03.02.2015 17:00 UTC Zobrazit METAR
HHAS 031700Z 27004KT CAVOK 15/06 Q1028 NOSIG
Astana (UACC) Zatím nenačteno  
Astrakhan (URWA) Zatím nenačteno  
Asuncion (SGAS) 08.04.2020 19:00 UTC Zobrazit METAR
SGAS 081900Z 19011KT 9999 FEW040 BKN083 24/07 Q1019 METAR SGES 081900Z 20012KT CAVOK 25/09 Q1016
Athens (LGAV) 08.04.2020 18:50 UTC Zobrazit METAR
LGAV 081850Z 01015KT 9999 FEW025 13/01 Q1019 NOSIG
Baghdad (ORBS) 06.06.2012 04:00 UTC  
Bagram (KQSA) 11.05.2016 15:58 UTC Zobrazit METAR
KQSA 111558Z VRB06KT 9999 BKN140 21/09 A3000 RMK AO2A SLP070 T02080091 $
Bahrain (OBBI) 08.04.2020 19:00 UTC Zobrazit METAR
OBBI 081900Z 14009KT 120V180 CAVOK 28/14 Q1008 NOSIG
Baku (UBBB) 08.04.2020 19:00 UTC Zobrazit METAR
UBBB 081900Z 19012KT 9999 BKN033 08/00 Q1030 R88/CLRD// NOSIG
Bamako (GABS) 08.04.2020 19:00 UTC Zobrazit METAR
GABS 081900Z 01006KT CAVOK 37/M01 Q1008 NOSIG
Bandar Seri Begawan (WBSB) 08.04.2020 19:00 UTC Zobrazit METAR
WBSB 081900Z 08002KT 7000 -SHRA SCT015 BKN140 27/25 Q1011 NOSIG
Bangkok (VTBD) 08.04.2020 19:00 UTC Zobrazit METAR
VTBD 081900Z 17006KT 140V200 9999 FEW020 29/26 Q1010 NOSIG
Bangui (FEFF) 08.04.2020 10:00 UTC Zobrazit METAR
FEFF 081000Z 23006KT 9999 SCT020 33/23 Q1009 NOSIG
Banja Luka (LQBK) 08.04.2020 19:00 UTC Zobrazit METAR
LQBK 081900Z VRB02KT CAVOK 09/M02 Q1025 NOSIG
Banjul (GBYD) 08.04.2020 18:00 UTC Zobrazit METAR
GBYD 081800Z 27012KT 9000 NSC 31/18 Q1006
Barbados (TBPB) 08.04.2020 19:00 UTC Zobrazit METAR
TBPB 081900Z 10016KT 9999 SCT020 30/21 Q1012 NOSIG
Barcelona (LEBL) 08.04.2020 19:00 UTC Zobrazit METAR
LEBL 081900Z VRB02KT 9999 FEW045 16/10 Q1024 NOSIG
Bari (LIBD) 08.04.2020 18:50 UTC Zobrazit METAR
LIBD 081850Z 24004KT CAVOK 09/05 Q1023
Basle-Mulhouse (LFSB) 08.04.2020 19:00 UTC Zobrazit METAR
LFSB 081900Z AUTO 21002KT CAVOK 14/02 Q1022 NOSIG
Basse-Terre (TFFB) Zatím nenačteno  
Basseterre (TKPK) 08.04.2020 19:00 UTC Zobrazit METAR
TKPK 081900Z 10011KT 9999 SCT022 29/24 Q1013
Beijing (ZBAA) Zatím nenačteno  
Beirut (OLBA) 08.04.2020 19:00 UTC Zobrazit METAR
OLBA 081900Z 14003KT 7000 FEW023 BKN090 17/11 Q1017 NOSIG
Belfast (EGAA) 08.04.2020 18:50 UTC Zobrazit METAR
EGAA 081850Z 29004KT 9999 BKN035 13/09 Q1024
Belgrade (LYBE) 08.04.2020 19:00 UTC Zobrazit METAR
LYBE 081900Z 04004KT CAVOK 13/M04 Q1025 NOSIG
Belize City (MZBZ) 08.04.2020 19:00 UTC Zobrazit METAR
MZBZ 081900Z 12010KT 9999 FEW027 BKN040 31/25 A2993 Q1013 NOSIG
Bergen (ENBR) 08.04.2020 17:50 UTC Zobrazit METAR
ENBR 081750Z VRB03KT 9999 FEW015 SCT040 06/02 Q1019 TEMPO 33010KT RMK WIND 1200FT 28010KT
Berlin (EDDT) 08.04.2020 18:50 UTC Zobrazit METAR
EDDT 081850Z 00000KT CAVOK 16/01 Q1022 NOSIG
Bermuda Is (TXKF) 08.04.2020 18:55 UTC Zobrazit METAR
TXKF 081855Z 24028KT 9999 SCT020 SCT075 BKN140 BKN250 21/17 Q1009
Bern (LSZB) 08.04.2020 18:50 UTC Zobrazit METAR
LSZB 081850Z AUTO VRB01KT CAVOK 11/04 Q1023
Billund (EKBI) 08.04.2020 18:50 UTC Zobrazit METAR
EKBI 081850Z AUTO 27007KT 9999 SCT120/// 09/03 Q1022
Birmingham (EGBB) 08.04.2020 18:50 UTC Zobrazit METAR
EGBB 081850Z 17003KT CAVOK 18/06 Q1023
Bishkek (UAFM) Zatím nenačteno  
Bissau (GGOV) 08.04.2020 16:00 UTC Zobrazit METAR
GGOV 081600Z 23007KT 190V290 CAVOK 35/18 Q1008 NOSIG
Bogota (SKBO) 08.04.2020 18:00 UTC Zobrazit METAR
SKBO 081800Z 09008KT 050V130 9000 VCSH FEW023 OVC050 19/10 A3032 TEMPO FM1820 RA
Bologna (LIPE) 08.04.2020 18:50 UTC Zobrazit METAR
LIPE 081850Z 12006KT CAVOK 14/M02 Q1023
Bordeaux (LFBD) 08.04.2020 19:00 UTC Zobrazit METAR
LFBD 081900Z AUTO 02004KT CAVOK 18/08 Q1021 NOSIG
Bornholm (EKRN) 08.04.2020 18:50 UTC Zobrazit METAR
EKRN 081850Z AUTO 13014KT 9999 BKN062/// 08/01 Q1022
Brasilia (SBBR) 08.04.2020 14:00 UTC Zobrazit METAR
SBBR 081400Z 11006KT 070V160 9999 SCT020 BKN040 27/21 Q1019
Bratislava (LZIB) 08.04.2020 19:00 UTC Zobrazit METAR
LZIB 081900Z 13006KT CAVOK 09/M01 Q1025
Brazzaville (FCBB) 08.04.2020 12:00 UTC Zobrazit METAR
FCBB 081200Z 21008KT 180V250 9999 FEW016 BKN022 30/24 Q1011 NOSIG
Bremen (EDDW) 08.04.2020 17:50 UTC Zobrazit METAR
EDDW 081750Z 35007KT CAVOK 19/09 Q1022 NOSIG
Brest (UMBB) Zatím nenačteno  
Brest (LFRB) 08.04.2020 19:00 UTC Zobrazit METAR
LFRB 081900Z AUTO 01006KT 9999 OVC044 14/10 Q1022 NOSIG
Brno (LKTB) 08.04.2020 19:00 UTC Zobrazit METAR
LKTB 081900Z 11004KT CAVOK 14/M06 Q1025 NOSIG
Předchozí 1 2 3 4 ... 9 Další
Reklama

Počasí na Váš email

Emaily jsou bez reklamy a bez spamu



Odhlásit newsletter

Reklama


Lunární kalendář

  • 15.04.
  • 23.04.
  • 30.04.
  • 07.05.





Vyhledat na internetu:
Reklama